Etusivu
METAR-TAF:

METAR-TAF

Lentoasemat :

Shanghai Pudongin kansainvälinen lentoasema

Shanghai-Pudong, Kiina

Leveyspiiri: 31-07N, Pituuspiiri: 121-46E, korkeus merenpinnasta: 4 m

Tämänhetkinen sää

Tämä raportti tehtiin 33 minuuttia sitten, kello 20.30 UTC
Tuuli 6 kn kaakosta
Lämpötila 27°C
Kosteus 94%
Ilmanpaine 1012 hPa
Näkyvyys 10 km tai enemmän
ei pilviä alle 1500 m:ssä eikä cumulonimbus-pilviä

METAR: ZSPD 182030Z 14003MPS CAVOK 27/26 Q1012 NOSIG

Aika: 05:03 (21:03 UTC)

Sääennuste

Tämä raportti tehtiin 5 tuntia ja 52 minuuttia sitten, kello 15.11 UTC
Ennuste voimassa 18. päivästä klo 18 UTC - 19. päivään klo 18 UTC
Tuuli 8 kn idästä/kaakosta
Näkyvyys: 6000 m
Hajonneita pilviä 1600 ft:n korkeudessa

TAF: ZSPD 181511Z 1818/1918 12004MPS 6000 BKN016 TX31/1906Z TN25/1821Z

Säähavainnot ja -ennusteet yli 4000 lentoasemalta (METAR- ja TAF-raportit).

Käytössä olevat sääasemat on merkitty karttaan keltaisilla ja punaisilla pisteillä.

Aseta hiiri pisteen päälle nähdäksesi sääaseman nimen.

Klikkaa sitten nähdäksesi säähavainnot ja -ennusteet.

Kartan vaihtaminen: klikkaa mustalla rastilla varustettuja vihreitä pisteitä, niin voit zoomata sisään; viivalla varustettua vihreää pistettä, niin voit zoomata ulos tai vihreitä nuolia, niin pääset viereisille kartoille.


METAR-TAF: